Ken Boothe Sr — WDG3360 — position and weather

sailwx.info

Track history (hours):
 
Tides and Currents Weather Stations Pressure Air Temp Water Temp Dewpoint Dewpoint Depression Visibility Wind Speed Wind Dir Waves Ship Positions

Ken Boothe Sr

Owner: AMERICAN STEAMSHIP COMPANY, WILLIAMSVILLE, NY. More information available from US FCC via Universal Licensing System and Coast Guard Vessel Documentation Center.

Last reported at 2016-Nov-16 01:15 UTC. Time now 2016-Dec-04 14:21 UTC.
Position N 46°53' W 091°48'.
Warning: this ship's position is 18 days out of date.

Length 30 m; draft 6 m.

Type: Towing. MMSI: 367525230.

Date/timePositionNaut miles runAvg speedWind from/ knotsBaromVisibWave heightAir tempDewpointWater temp
2016-Nov-16 01:15N 46°53' W 091°48'11 2.9
2016-Nov-15 21:33N 46°47' W 092°01'0 0.0
2016-Nov-15 19:33N 46°47' W 092°01'0 0.0
2016-Nov-15 18:33N 46°47' W 092°01'0 0.0
2016-Nov-15 13:33N 46°47' W 092°01'0 0.0
2016-Nov-15 12:33N 46°47' W 092°01'0 0.0
2016-Nov-15 11:33N 46°47' W 092°01'0 0.0
2016-Nov-15 10:33N 46°47' W 092°01'6 2.1
2016-Nov-15 07:33N 46°49' W 091°53'9 2.4
2016-Nov-15 03:33N 46°46' W 092°06'2 2.4
2016-Nov-15 02:33N 46°44' W 092°08'1 0.5
2016-Nov-15 00:33N 46°43' W 092°09'0 0.0
2016-Nov-14 23:42N 46°43' W 092°09'0 0.0
2016-Nov-14 19:33N 46°43' W 092°09'0 0.1
2016-Nov-14 17:33N 46°43' W 092°09'1 0.6
2016-Nov-14 16:33N 46°44' W 092°09'2 1.8
2016-Nov-14 15:33N 46°45' W 092°06'  
Track history (hours):
 
Tides and Currents Weather Stations Pressure Air Temp Water Temp Dewpoint Dewpoint Depression Visibility Wind Speed Wind Dir Waves Ship Positions

Ken Boothe Sr

Owner: AMERICAN STEAMSHIP COMPANY, WILLIAMSVILLE, NY. More information available from US FCC via Universal Licensing System and Coast Guard Vessel Documentation Center.

Last reported at 2016-Nov-16 01:15 UTC. Time now 2016-Dec-04 14:21 UTC.
Position N 46°53' W 091°48'.
Warning: this ship's position is 18 days out of date.

Length 30 m; draft 6 m.

Type: Towing. MMSI: 367525230.

Date/timePositionNaut miles runAvg speedWind from/ knotsBaromVisibWave heightAir tempDewpointWater temp
2016-Nov-16 01:15N 46°53' W 091°48'11 2.9
2016-Nov-15 21:33N 46°47' W 092°01'0 0.0
2016-Nov-15 19:33N 46°47' W 092°01'0 0.0
2016-Nov-15 18:33N 46°47' W 092°01'0 0.0
2016-Nov-15 13:33N 46°47' W 092°01'0 0.0
2016-Nov-15 12:33N 46°47' W 092°01'0 0.0
2016-Nov-15 11:33N 46°47' W 092°01'0 0.0
2016-Nov-15 10:33N 46°47' W 092°01'6 2.1
2016-Nov-15 07:33N 46°49' W 091°53'9 2.4
2016-Nov-15 03:33N 46°46' W 092°06'2 2.4
2016-Nov-15 02:33N 46°44' W 092°08'1 0.5
2016-Nov-15 00:33N 46°43' W 092°09'0 0.0
2016-Nov-14 23:42N 46°43' W 092°09'0 0.0
2016-Nov-14 19:33N 46°43' W 092°09'0 0.1
2016-Nov-14 17:33N 46°43' W 092°09'1 0.6
2016-Nov-14 16:33N 46°44' W 092°09'2 1.8
2016-Nov-14 15:33N 46°45' W 092°06'  

Dump ship's entire track history